Time;durP1;ratioP1;P1;durP2;ratioP2;P2;SDS_P1;SDS_P2;PMS_P1;PMS_P2;Temp;Humidity;BMP_temperature;BMP_pressure;BME280_temperature;BME280_humidity;BME280_pressure;Samples;Min_cycle;Max_cycle;Signal;HPM_P1;HPM_P2
2022/04/03 00:01:58;;;;;;;163.90;45.47;;;;;;;;;;5074593;28;20293;-77
2022/04/03 00:04:25;;;;;;;178.63;45.67;;;;;;;;;;5073652;28;20691;-77
2022/04/03 00:06:54;;;;;;;142.73;45.60;;;;;;;;;;5074005;28;20658;-78
2022/04/03 00:09:22;;;;;;;167.57;44.03;;;;;;;;;;5074405;28;20215;-78
2022/04/03 00:11:49;;;;;;;204.77;45.07;;;;;;;;;;5074028;28;20224;-77
2022/04/03 00:14:17;;;;;;;143.70;43.90;;;;;;;;;;5074354;28;20295;-77
2022/04/03 00:16:45;;;;;;;151.17;43.00;;;;;;;;;;5074360;28;20232;-77
2022/04/03 00:19:12;;;;;;;202.70;44.60;;;;;;;;;;5074151;28;20235;-77
2022/04/03 00:21:39;;;;;;;144.87;43.20;;;;;;;;;;5073869;28;20303;-79
2022/04/03 00:24:07;;;;;;;130.93;43.17;;;;;;;;;;5074567;28;20211;-77
2022/04/03 00:26:35;;;;;;;117.03;43.77;;;;;;;;;;5074233;28;20228;-77
2022/04/03 00:29:02;;;;;;;147.60;43.57;;;;;;;;;;5074465;28;20269;-78
2022/04/03 00:31:30;;;;;;;167.90;45.93;;;;;;;;;;5073521;28;20306;-77
2022/04/03 00:33:57;;;;;;;133.83;42.90;;;;;;;;;;5073908;28;20259;-77
2022/04/03 00:36:25;;;;;;;114.60;44.10;;;;;;;;;;5073292;28;20260;-77
2022/04/03 00:38:52;;;;;;;167.37;43.90;;;;;;;;;;5073948;28;20337;-77
2022/04/03 00:41:20;;;;;;;139.20;42.70;;;;;;;;;;5073262;28;20228;-77
2022/04/03 00:43:48;;;;;;;163.97;43.47;;;;;;;;;;5073700;28;20228;-77
2022/04/03 00:46:17;;;;;;;152.43;41.93;;;;;;;;;;5073620;28;20304;-77
2022/04/03 00:48:47;;;;;;;141.83;41.90;;;;;;;;;;5073209;28;20204;-77
2022/04/03 00:51:14;;;;;;;214.80;42.57;;;;;;;;;;5073828;28;20220;-78
2022/04/03 00:53:41;;;;;;;139.43;40.43;;;;;;;;;;5072952;28;20220;-78
2022/04/03 00:56:09;;;;;;;153.03;39.73;;;;;;;;;;5073385;28;20276;-78
2022/04/03 00:58:37;;;;;;;181.87;40.00;;;;;;;;;;5073481;28;20205;-79
2022/04/03 01:01:04;;;;;;;124.70;40.30;;;;;;;;;;5074331;28;20224;-78
2022/04/03 01:03:32;;;;;;;126.20;38.57;;;;;;;;;;5073702;28;20283;-78
2022/04/03 01:06:00;;;;;;;125.63;39.83;;;;;;;;;;5074250;28;20201;-78
2022/04/03 01:08:28;;;;;;;119.80;39.90;;;;;;;;;;5074923;28;20226;-78
2022/04/03 01:10:55;;;;;;;105.00;41.30;;;;;;;;;;5074227;28;20797;-78
2022/04/03 01:13:25;;;;;;;124.03;43.27;;;;;;;;;;5074667;28;20303;-78
2022/04/03 01:15:52;;;;;;;175.83;41.97;;;;;;;;;;5075165;28;20266;-78
2022/04/03 01:18:19;;;;;;;170.63;41.57;;;;;;;;;;5080332;28;20236;-78
2022/04/03 01:20:47;;;;;;;130.17;43.33;;;;;;;;;;5079775;28;20208;-78
2022/04/03 01:23:15;;;;;;;165.23;40.57;;;;;;;;;;5082231;28;20204;-78
2022/04/03 01:25:44;;;;;;;115.90;43.70;;;;;;;;;;5081371;28;20204;-78
2022/04/03 01:28:11;;;;;;;109.23;41.67;;;;;;;;;;5072926;28;20236;-78
2022/04/03 01:30:39;;;;;;;139.67;45.07;;;;;;;;;;5074609;28;20204;-78
2022/04/03 01:33:06;;;;;;;137.70;43.60;;;;;;;;;;5073130;28;20281;-78
2022/04/03 01:35:33;;;;;;;146.07;42.63;;;;;;;;;;5069808;28;20201;-78
2022/04/03 01:38:00;;;;;;;105.33;42.07;;;;;;;;;;5072659;28;20220;-78
2022/04/03 01:40:28;;;;;;;128.33;43.50;;;;;;;;;;5074403;28;20228;-78
2022/04/03 01:42:56;;;;;;;145.00;44.43;;;;;;;;;;5074233;28;20216;-78
2022/04/03 01:45:24;;;;;;;113.77;43.83;;;;;;;;;;5074717;28;20203;-78
2022/04/03 01:47:51;;;;;;;124.40;44.53;;;;;;;;;;5074634;28;20226;-78
2022/04/03 01:50:18;;;;;;;128.37;43.00;;;;;;;;;;5073530;28;20225;-78
2022/04/03 01:52:45;;;;;;;130.67;44.13;;;;;;;;;;5072544;28;20260;-77
2022/04/03 01:55:13;;;;;;;148.27;43.97;;;;;;;;;;5072602;28;20250;-78
2022/04/03 01:57:40;;;;;;;125.83;42.97;;;;;;;;;;5072871;28;20200;-78
2022/04/03 02:00:11;;;;;;;149.27;45.43;;;;;;;;;;5072309;28;20205;-78
2022/04/03 02:02:38;;;;;;;163.37;43.77;;;;;;;;;;5073131;28;20332;-78
2022/04/03 02:05:06;;;;;;;138.37;44.90;;;;;;;;;;5072287;28;20212;-78
2022/04/03 02:07:34;;;;;;;132.73;43.60;;;;;;;;;;5072995;28;20278;-78
2022/04/03 02:10:01;;;;;;;120.90;43.13;;;;;;;;;;5072669;28;20192;-78
2022/04/03 02:12:28;;;;;;;155.00;43.90;;;;;;;;;;5071914;28;20250;-78
2022/04/03 02:14:55;;;;;;;125.47;43.37;;;;;;;;;;5073033;28;20307;-78
2022/04/03 02:17:24;;;;;;;125.60;44.93;;;;;;;;;;5073137;28;20207;-78
2022/04/03 02:19:51;;;;;;;122.57;43.40;;;;;;;;;;5072361;28;20204;-78
2022/04/03 02:22:18;;;;;;;120.80;42.47;;;;;;;;;;5072312;28;20312;-78
2022/04/03 02:24:45;;;;;;;122.37;40.97;;;;;;;;;;5071961;28;20322;-78
2022/04/03 02:27:13;;;;;;;137.03;42.00;;;;;;;;;;5073489;28;20261;-78
2022/04/03 02:29:40;;;;;;;121.43;42.43;;;;;;;;;;5073925;28;20232;-78
2022/04/03 02:32:07;;;;;;;112.53;42.40;;;;;;;;;;5076246;28;20365;-78
2022/04/03 02:34:36;;;;;;;113.13;40.97;;;;;;;;;;5076039;28;20255;-77
2022/04/03 02:37:04;;;;;;;112.50;40.87;;;;;;;;;;5075643;28;20235;-78
2022/04/03 02:39:31;;;;;;;134.00;42.47;;;;;;;;;;5076313;28;20212;-78
2022/04/03 02:41:58;;;;;;;119.63;40.93;;;;;;;;;;5074896;28;20315;-77
2022/04/03 02:44:25;;;;;;;118.07;39.77;;;;;;;;;;5076155;28;20269;-77
2022/04/03 02:46:52;;;;;;;132.93;40.57;;;;;;;;;;5076050;28;20210;-77
2022/04/03 02:49:20;;;;;;;128.40;42.00;;;;;;;;;;5075756;28;20255;-78
2022/04/03 02:51:48;;;;;;;122.03;41.77;;;;;;;;;;5075677;28;20259;-78
2022/04/03 02:54:16;;;;;;;94.93;38.93;;;;;;;;;;5075567;28;20225;-78
2022/04/03 02:56:43;;;;;;;102.37;40.50;;;;;;;;;;5075678;28;20271;-78
2022/04/03 02:59:10;;;;;;;99.50;40.13;;;;;;;;;;5076680;28;20238;-78
2022/04/03 03:01:37;;;;;;;98.43;40.07;;;;;;;;;;5076130;28;20299;-78
2022/04/03 03:04:05;;;;;;;107.27;43.10;;;;;;;;;;5076370;28;20204;-78
2022/04/03 03:06:32;;;;;;;95.80;40.47;;;;;;;;;;5075985;28;20200;-78
2022/04/03 03:09:01;;;;;;;104.20;39.90;;;;;;;;;;5075465;28;20232;-78
2022/04/03 03:11:28;;;;;;;111.50;40.93;;;;;;;;;;5075771;28;20228;-78
2022/04/03 03:13:56;;;;;;;109.23;39.83;;;;;;;;;;5075263;28;20224;-78
2022/04/03 03:16:23;;;;;;;114.00;39.73;;;;;;;;;;5075683;28;20201;-78
2022/04/03 03:18:50;;;;;;;117.73;41.20;;;;;;;;;;5075291;28;20254;-78
2022/04/03 03:21:17;;;;;;;109.93;39.23;;;;;;;;;;5075469;28;20217;-78
2022/04/03 03:23:45;;;;;;;108.70;40.83;;;;;;;;;;5075319;28;20288;-78
2022/04/03 03:26:13;;;;;;;112.20;40.83;;;;;;;;;;5075235;28;20250;-78
2022/04/03 03:28:40;;;;;;;121.30;39.50;;;;;;;;;;5075319;28;20209;-78
2022/04/03 03:31:08;;;;;;;91.30;40.47;;;;;;;;;;5098023;22;20236;-74
2022/04/03 03:33:35;;;;;;;98.60;40.53;;;;;;;;;;5051860;28;20316;-77
2022/04/03 03:36:02;;;;;;;112.33;40.43;;;;;;;;;;5053419;28;20202;-77
2022/04/03 03:38:29;;;;;;;102.27;41.07;;;;;;;;;;5056377;28;20251;-77
2022/04/03 03:40:56;;;;;;;108.70;40.67;;;;;;;;;;5066305;28;20218;-77
2022/04/03 03:43:25;;;;;;;101.77;40.63;;;;;;;;;;5032403;28;20225;-77
2022/04/03 03:45:52;;;;;;;113.03;39.10;;;;;;;;;;5035242;28;20240;-77
2022/04/03 03:48:19;;;;;;;96.77;39.87;;;;;;;;;;5034725;28;20280;-77
2022/04/03 03:50:46;;;;;;;94.97;39.97;;;;;;;;;;5042945;28;20236;-77
2022/04/03 03:53:14;;;;;;;97.53;39.23;;;;;;;;;;5034360;28;20320;-77
2022/04/03 03:55:41;;;;;;;101.20;39.37;;;;;;;;;;5035693;28;20206;-77
2022/04/03 03:58:08;;;;;;;99.40;38.83;;;;;;;;;;5036615;28;20293;-77
2022/04/03 04:00:37;;;;;;;104.87;40.40;;;;;;;;;;5036540;28;20205;-77
2022/04/03 04:03:04;;;;;;;110.93;41.53;;;;;;;;;;5029814;28;20221;-77
2022/04/03 04:05:32;;;;;;;94.83;40.80;;;;;;;;;;5035790;28;20237;-77
2022/04/03 04:08:01;;;;;;;108.90;40.53;;;;;;;;;;5034896;28;20198;-77
2022/04/03 04:10:28;;;;;;;100.53;40.10;;;;;;;;;;5037427;28;20209;-77
2022/04/03 04:12:55;;;;;;;107.27;39.70;;;;;;;;;;5032202;28;20217;-77
2022/04/03 04:15:22;;;;;;;107.70;41.17;;;;;;;;;;5053910;28;20225;-77
2022/04/03 04:17:54;;;;;;;108.90;39.53;;;;;;;;;;5055620;28;20209;-77
2022/04/03 04:20:21;;;;;;;105.83;40.23;;;;;;;;;;5046303;28;20218;-77
2022/04/03 04:22:49;;;;;;;112.37;41.70;;;;;;;;;;5049387;28;20241;-77
2022/04/03 04:25:17;;;;;;;96.63;39.90;;;;;;;;;;5050681;28;20233;-77
2022/04/03 04:27:45;;;;;;;96.43;38.17;;;;;;;;;;5046810;28;20206;-77
2022/04/03 04:30:13;;;;;;;99.37;39.40;;;;;;;;;;5047277;28;20209;-77
2022/04/03 04:32:40;;;;;;;99.60;38.17;;;;;;;;;;5052618;28;20233;-77
2022/04/03 04:35:09;;;;;;;98.70;38.43;;;;;;;;;;5032938;28;20230;-75
2022/04/03 04:37:36;;;;;;;97.57;38.70;;;;;;;;;;5033378;28;20316;-75
2022/04/03 04:40:05;;;;;;;96.77;36.40;;;;;;;;;;5028655;28;20202;-75
2022/04/03 04:42:32;;;;;;;97.23;37.20;;;;;;;;;;5033508;28;20257;-76
2022/04/03 04:44:59;;;;;;;105.50;39.03;;;;;;;;;;5029913;28;20297;-75
2022/04/03 04:47:26;;;;;;;96.00;37.93;;;;;;;;;;5028212;28;20236;-75
2022/04/03 04:49:54;;;;;;;88.70;37.10;;;;;;;;;;5033362;28;20213;-75
2022/04/03 04:52:22;;;;;;;88.27;37.43;;;;;;;;;;5028740;28;20221;-75
2022/04/03 04:54:49;;;;;;;84.77;36.30;;;;;;;;;;5026454;28;20320;-75
2022/04/03 04:57:17;;;;;;;84.73;35.27;;;;;;;;;;5025197;28;20270;-75
2022/04/03 04:59:44;;;;;;;80.67;34.53;;;;;;;;;;5045637;28;20235;-75
2022/04/03 05:02:11;;;;;;;87.90;35.00;;;;;;;;;;5026457;28;20228;-75
2022/04/03 05:04:39;;;;;;;77.73;34.93;;;;;;;;;;5022627;28;20233;-75
2022/04/03 05:07:06;;;;;;;79.27;34.20;;;;;;;;;;5039279;28;20201;-78
2022/04/03 05:09:36;;;;;;;80.90;33.87;;;;;;;;;;5051818;28;20240;-77
2022/04/03 05:12:03;;;;;;;75.07;33.83;;;;;;;;;;5027636;28;20228;-75
2022/04/03 05:14:30;;;;;;;80.73;34.73;;;;;;;;;;5031991;28;20224;-75
2022/04/03 05:16:57;;;;;;;83.60;34.03;;;;;;;;;;5052121;28;20289;-75
2022/04/03 05:19:26;;;;;;;77.37;33.93;;;;;;;;;;5031561;28;20210;-75
2022/04/03 05:21:54;;;;;;;73.60;32.27;;;;;;;;;;5045270;28;20276;-75
2022/04/03 05:24:21;;;;;;;77.43;32.90;;;;;;;;;;5044349;28;20198;-75
2022/04/03 05:26:53;;;;;;;80.53;34.73;;;;;;;;;;5032399;28;20209;-76
2022/04/03 05:29:20;;;;;;;77.93;32.73;;;;;;;;;;5032368;28;20202;-75
2022/04/03 05:31:47;;;;;;;79.70;33.83;;;;;;;;;;5026227;28;20300;-75
2022/04/03 05:34:14;;;;;;;83.60;34.30;;;;;;;;;;5025874;28;20229;-76
2022/04/03 05:36:41;;;;;;;77.73;32.80;;;;;;;;;;5042758;28;20206;-76
2022/04/03 05:39:08;;;;;;;78.87;33.87;;;;;;;;;;5032720;28;20205;-76
2022/04/03 05:41:36;;;;;;;75.13;32.23;;;;;;;;;;5040724;28;20281;-82
2022/04/03 05:44:05;;;;;;;71.13;32.47;;;;;;;;;;5030294;28;20292;-76
2022/04/03 05:46:32;;;;;;;70.93;30.77;;;;;;;;;;5030082;28;20206;-76
2022/04/03 05:48:59;;;;;;;75.23;32.30;;;;;;;;;;5027489;28;20244;-76
2022/04/03 05:51:27;;;;;;;67.30;29.70;;;;;;;;;;5031939;28;20213;-76
2022/04/03 05:53:54;;;;;;;72.77;31.33;;;;;;;;;;5030473;28;20222;-76
2022/04/03 05:56:27;;;;;;;67.63;31.43;;;;;;;;;;5030729;28;20199;-77
2022/04/03 05:58:54;;;;;;;68.53;31.00;;;;;;;;;;5027626;28;20216;-76
2022/04/03 06:01:22;;;;;;;56.43;29.20;;;;;;;;;;5047422;28;20224;-76
2022/04/03 06:03:49;;;;;;;65.67;30.40;;;;;;;;;;5030463;28;20205;-76
2022/04/03 06:06:17;;;;;;;67.57;30.73;;;;;;;;;;5034667;28;20206;-76
2022/04/03 06:08:44;;;;;;;56.43;29.33;;;;;;;;;;5030533;28;20265;-76
2022/04/03 06:11:11;;;;;;;63.33;30.33;;;;;;;;;;5030190;28;20296;-76
2022/04/03 06:13:38;;;;;;;58.87;28.87;;;;;;;;;;5029264;28;20208;-76
2022/04/03 06:16:06;;;;;;;63.40;28.70;;;;;;;;;;5028683;28;20222;-76
2022/04/03 06:18:34;;;;;;;63.13;29.43;;;;;;;;;;5034449;28;20240;-76
2022/04/03 06:21:01;;;;;;;65.03;30.83;;;;;;;;;;5033794;28;20206;-76
2022/04/03 06:23:28;;;;;;;67.97;30.60;;;;;;;;;;5054558;28;20205;-76
2022/04/03 06:25:57;;;;;;;64.50;30.50;;;;;;;;;;5037439;28;20205;-76
2022/04/03 06:28:24;;;;;;;74.83;36.03;;;;;;;;;;5035581;28;20213;-76
2022/04/03 06:30:52;;;;;;;70.43;32.10;;;;;;;;;;5033583;28;20286;-76
2022/04/03 06:33:20;;;;;;;65.10;33.33;;;;;;;;;;5042701;28;20240;-79
2022/04/03 06:35:49;;;;;;;62.00;30.83;;;;;;;;;;5037119;28;20299;-80
2022/04/03 06:38:16;;;;;;;56.17;29.03;;;;;;;;;;5026084;28;20206;-80
2022/04/03 06:40:48;;;;;;;57.13;29.83;;;;;;;;;;5040082;28;20274;-80
2022/04/03 06:43:17;;;;;;;55.77;30.43;;;;;;;;;;5034000;28;20377;-77
2022/04/03 06:45:44;;;;;;;61.27;32.10;;;;;;;;;;5026583;28;20308;-76
2022/04/03 06:48:11;;;;;;;58.53;31.60;;;;;;;;;;5034991;28;20244;-76
2022/04/03 06:50:38;;;;;;;55.70;31.80;;;;;;;;;;5043643;28;20285;-76
2022/04/03 06:53:07;;;;;;;56.63;30.07;;;;;;;;;;5034644;28;20715;-76
2022/04/03 06:55:34;;;;;;;49.50;26.87;;;;;;;;;;5032198;28;20790;-76
2022/04/03 06:58:02;;;;;;;52.77;27.90;;;;;;;;;;5034238;28;20292;-76
2022/04/03 07:00:29;;;;;;;48.50;26.93;;;;;;;;;;5033808;28;20281;-77
2022/04/03 07:02:57;;;;;;;48.77;27.23;;;;;;;;;;5033994;28;20345;-76
2022/04/03 07:05:24;;;;;;;47.60;26.87;;;;;;;;;;5034975;28;20204;-77
2022/04/03 07:07:52;;;;;;;47.60;26.43;;;;;;;;;;5034949;28;20205;-75
2022/04/03 07:10:21;;;;;;;45.00;24.97;;;;;;;;;;5040096;28;20212;-77
2022/04/03 07:12:49;;;;;;;44.00;24.63;;;;;;;;;;5032393;28;20313;-77
2022/04/03 07:15:16;;;;;;;43.83;26.20;;;;;;;;;;5032434;28;20309;-79
2022/04/03 07:17:44;;;;;;;41.07;24.93;;;;;;;;;;5035820;28;20208;-76
2022/04/03 07:20:13;;;;;;;40.63;23.83;;;;;;;;;;5029383;28;20198;-76
2022/04/03 07:22:41;;;;;;;41.80;23.60;;;;;;;;;;5031449;28;20244;-76
2022/04/03 07:25:08;;;;;;;45.67;26.13;;;;;;;;;;5021626;28;20194;-75
2022/04/03 07:27:37;;;;;;;49.33;26.27;;;;;;;;;;5027872;28;20285;-76
2022/04/03 07:30:05;;;;;;;49.83;27.73;;;;;;;;;;5027602;28;20202;-76
2022/04/03 07:32:32;;;;;;;49.83;27.77;;;;;;;;;;5026583;28;20241;-76
2022/04/03 07:34:59;;;;;;;52.60;28.07;;;;;;;;;;5025633;28;20237;-79
2022/04/03 07:37:27;;;;;;;46.47;26.83;;;;;;;;;;5045823;28;20221;-83
2022/04/03 07:39:54;;;;;;;47.97;27.83;;;;;;;;;;5033982;28;20224;-77
2022/04/03 07:42:21;;;;;;;45.83;26.70;;;;;;;;;;5040046;28;20230;-75
2022/04/03 07:44:50;;;;;;;43.23;26.23;;;;;;;;;;5045683;28;20254;-75
2022/04/03 07:47:17;;;;;;;42.93;24.90;;;;;;;;;;5039302;28;20237;-77
2022/04/03 07:49:44;;;;;;;45.03;26.50;;;;;;;;;;5029802;28;20266;-76
2022/04/03 07:52:11;;;;;;;35.90;23.20;;;;;;;;;;5032657;28;20253;-76
2022/04/03 07:54:39;;;;;;;36.57;22.83;;;;;;;;;;5031025;28;20706;-76
2022/04/03 07:57:07;;;;;;;30.93;20.53;;;;;;;;;;5033280;28;20209;-76
2022/04/03 07:59:34;;;;;;;30.73;20.40;;;;;;;;;;5037283;28;20201;-79
2022/04/03 08:02:03;;;;;;;28.73;19.43;;;;;;;;;;5031142;28;20254;-76
2022/04/03 08:04:31;;;;;;;29.43;20.40;;;;;;;;;;5030943;28;20198;-77
2022/04/03 08:06:58;;;;;;;25.97;18.07;;;;;;;;;;5030677;28;20300;-79
2022/04/03 08:09:25;;;;;;;26.73;19.07;;;;;;;;;;5031660;28;20209;-77
2022/04/03 08:11:52;;;;;;;24.87;18.77;;;;;;;;;;5033658;28;20248;-79
2022/04/03 08:14:19;;;;;;;24.47;17.97;;;;;;;;;;5034852;28;20230;-77
2022/04/03 08:16:47;;;;;;;27.20;19.43;;;;;;;;;;5031271;28;20221;-78
2022/04/03 08:19:16;;;;;;;25.37;18.10;;;;;;;;;;5033022;28;20251;-76
2022/04/03 08:21:44;;;;;;;26.27;17.97;;;;;;;;;;5033731;28;20222;-78
2022/04/03 08:24:11;;;;;;;22.13;17.20;;;;;;;;;;5036264;28;20705;-77
2022/04/03 08:26:38;;;;;;;19.77;15.00;;;;;;;;;;5034883;28;20256;-77
2022/04/03 08:29:06;;;;;;;23.83;17.73;;;;;;;;;;5034566;28;20301;-77
2022/04/03 08:31:34;;;;;;;21.37;17.40;;;;;;;;;;5032316;28;20358;-80
2022/04/03 08:34:01;;;;;;;19.87;15.33;;;;;;;;;;5038813;28;20218;-79
2022/04/03 08:36:30;;;;;;;20.30;15.70;;;;;;;;;;5033645;28;20218;-78
2022/04/03 08:38:57;;;;;;;16.90;14.93;;;;;;;;;;5035018;28;20270;-83
2022/04/03 08:41:27;;;;;;;17.30;14.13;;;;;;;;;;5038157;28;20226;-80
2022/04/03 08:43:54;;;;;;;17.30;13.93;;;;;;;;;;5038789;28;20232;-80
2022/04/03 08:46:22;;;;;;;17.07;14.97;;;;;;;;;;5044535;28;20199;-81
2022/04/03 08:48:49;;;;;;;16.60;14.23;;;;;;;;;;5035914;28;20230;-80
2022/04/03 08:51:17;;;;;;;18.40;15.67;;;;;;;;;;5055111;28;20268;-78
2022/04/03 08:53:47;;;;;;;17.43;15.10;;;;;;;;;;5054259;28;20221;-80
2022/04/03 08:56:14;;;;;;;16.60;13.93;;;;;;;;;;5055204;28;20259;-80
2022/04/03 08:58:41;;;;;;;15.70;12.33;;;;;;;;;;5045749;28;20201;-80
2022/04/03 09:01:09;;;;;;;15.23;13.53;;;;;;;;;;5038018;28;20190;-81
2022/04/03 09:03:37;;;;;;;12.93;11.63;;;;;;;;;;5038641;28;20206;-81
2022/04/03 09:06:14;;;;;;;14.83;12.43;;;;;;;;;;5033349;28;20206;-81
2022/04/03 09:08:41;;;;;;;13.30;11.90;;;;;;;;;;5032857;28;20209;-76
2022/04/03 09:11:10;;;;;;;14.37;11.83;;;;;;;;;;5038198;28;20201;-76
2022/04/03 09:13:38;;;;;;;13.43;12.03;;;;;;;;;;5035897;28;20261;-76
2022/04/03 09:16:06;;;;;;;14.87;11.93;;;;;;;;;;5033222;28;20221;-76
2022/04/03 09:18:49;;;;;;;13.60;12.20;;;;;;;;;;5028555;28;20733;-76
2022/04/03 09:21:20;;;;;;;14.87;12.67;;;;;;;;;;5028150;28;20217;-76
2022/04/03 09:24:00;;;;;;;15.40;12.73;;;;;;;;;;5032289;28;20507;-76
2022/04/03 09:26:29;;;;;;;15.43;13.83;;;;;;;;;;5027757;28;20256;-75
2022/04/03 09:29:10;;;;;;;16.40;14.70;;;;;;;;;;5032437;28;20252;-76
2022/04/03 09:34:08;;;;;;;12.40;11.10;;;;;;;;;;5016738;28;20214;-78
2022/04/03 09:36:37;;;;;;;16.13;13.93;;;;;;;;;;5014434;28;20225;-77
2022/04/03 09:39:06;;;;;;;15.20;13.30;;;;;;;;;;5010180;28;20265;-77
2022/04/03 09:41:35;;;;;;;13.57;12.23;;;;;;;;;;5014844;28;20214;-77
2022/04/03 09:44:19;;;;;;;13.03;11.67;;;;;;;;;;5015535;28;20194;-77
2022/04/03 09:46:48;;;;;;;10.73;9.63;;;;;;;;;;5011426;28;20261;-78
2022/04/03 09:49:33;;;;;;;11.70;10.60;;;;;;;;;;5012776;28;20206;-78
2022/04/03 09:52:04;;;;;;;13.50;12.13;;;;;;;;;;5006659;28;20703;-78
2022/04/03 09:54:38;;;;;;;13.67;12.27;;;;;;;;;;5016986;28;20202;-79
2022/04/03 09:57:23;;;;;;;15.30;13.70;;;;;;;;;;5014494;28;20245;-82
2022/04/03 09:59:52;;;;;;;11.83;10.67;;;;;;;;;;5017996;28;20203;-79
2022/04/03 10:02:22;;;;;;;11.00;9.90;;;;;;;;;;5011536;28;20210;-80
2022/04/03 10:04:50;;;;;;;11.63;10.43;;;;;;;;;;5013334;28;20206;-79
2022/04/03 10:07:26;;;;;;;9.70;8.90;;;;;;;;;;5014348;28;21000;-78
2022/04/03 10:09:54;;;;;;;11.10;9.90;;;;;;;;;;5015939;28;20205;-79
2022/04/03 10:12:25;;;;;;;8.03;7.23;;;;;;;;;;5018751;28;20230;-78
2022/04/03 10:14:57;;;;;;;6.20;5.70;;;;;;;;;;5018531;28;20280;-78
2022/04/03 10:17:28;;;;;;;6.73;6.10;;;;;;;;;;5015224;28;20214;-77
2022/04/03 10:20:05;;;;;;;;;;;;;;;;;;;;;
2022/04/03 10:22:38;;;;;;;6.17;5.63;;;;;;;;;;5010964;28;20277;-79
2022/04/03 10:25:15;;;;;;;6.43;5.83;;;;;;;;;;5017101;28;20760;-78
2022/04/03 10:27:46;;;;;;;6.57;5.97;;;;;;;;;;5014320;28;20241;-78
2022/04/03 10:30:19;;;;;;;7.43;6.73;;;;;;;;;;5014623;28;20228;-78
2022/04/03 10:33:00;;;;;;;6.53;5.80;;;;;;;;;;5010064;28;20246;-84
2022/04/03 10:35:28;;;;;;;7.70;7.00;;;;;;;;;;5010804;28;20222;-80
2022/04/03 10:38:04;;;;;;;7.23;6.53;;;;;;;;;;5014282;28;20277;-79
2022/04/03 10:40:35;;;;;;;6.50;5.90;;;;;;;;;;5013459;28;20209;-81
2022/04/03 10:43:06;;;;;;;6.80;6.20;;;;;;;;;;5021501;28;20230;-78
2022/04/03 10:45:34;;;;;;;7.60;6.90;;;;;;;;;;5011281;28;20277;-79
2022/04/03 10:48:31;;;;;;;7.67;6.97;;;;;;;;;;5016778;28;20202;-79
2022/04/03 10:51:09;;;;;;;6.63;5.93;;;;;;;;;;5014100;28;20290;-79
2022/04/03 10:53:38;;;;;;;7.03;6.20;;;;;;;;;;5015954;28;20280;-82
2022/04/03 10:56:09;;;;;;;5.80;5.30;;;;;;;;;;5015115;28;20229;-78
2022/04/03 10:58:49;;;;;;;6.13;5.47;;;;;;;;;;5015486;28;20207;-85
2022/04/03 11:01:24;;;;;;;6.83;6.23;;;;;;;;;;5016026;28;20256;-81
2022/04/03 11:04:10;;;;;;;6.93;6.40;;;;;;;;;;5017933;28;20229;-91
2022/04/03 11:06:38;;;;;;;6.60;6.00;;;;;;;;;;5012468;28;20209;-88
2022/04/03 11:09:51;;;;;;;;;;;;;;;;;;;;;
2022/04/03 11:12:56;;;;;;;;;;;;;;;;;;;;;
2022/04/03 11:15:48;;;;;;;4.97;4.50;;;;;;;;;;5016166;28;20205;-89
2022/04/03 11:18:37;;;;;;;6.10;5.57;;;;;;;;;;5015834;28;20221;-88
2022/04/03 11:30:06;;;;;;;6.20;5.60;;;;;;;;;;5016201;28;20217;-89
2022/04/03 11:42:35;;;;;;;6.80;6.10;;;;;;;;;;4789436;29;20745;-91
2022/04/03 11:45:07;;;;;;;5.63;5.10;;;;;;;;;;4818884;29;20239;-80
2022/04/03 11:47:35;;;;;;;6.17;5.53;;;;;;;;;;4896313;29;20234;-81
2022/04/03 11:50:13;;;;;;;5.17;4.77;;;;;;;;;;4902087;29;20286;-88
2022/04/03 11:52:41;;;;;;;5.03;4.50;;;;;;;;;;4901827;29;20258;-81
2022/04/03 11:55:11;;;;;;;4.80;4.40;;;;;;;;;;4906745;29;20198;-81
2022/04/03 11:57:42;;;;;;;5.53;4.87;;;;;;;;;;4899554;29;20242;-78
2022/04/03 12:00:12;;;;;;;6.67;5.10;;;;;;;;;;4899730;29;20411;-80
2022/04/03 12:02:43;;;;;;;4.87;4.47;;;;;;;;;;4897591;29;20237;-79
2022/04/03 12:05:10;;;;;;;5.13;4.63;;;;;;;;;;4906311;29;20203;-79
2022/04/03 12:07:37;;;;;;;6.03;4.57;;;;;;;;;;4909453;29;20214;-78
2022/04/03 12:10:08;;;;;;;5.67;5.17;;;;;;;;;;4894943;29;20206;-78
2022/04/03 12:12:35;;;;;;;4.47;4.13;;;;;;;;;;4927224;28;20235;-76
2022/04/03 12:15:03;;;;;;;5.20;4.70;;;;;;;;;;4972247;28;20247;-78
2022/04/03 12:17:40;;;;;;;5.00;4.60;;;;;;;;;;4976023;28;20220;-77
2022/04/03 12:20:12;;;;;;;5.90;5.40;;;;;;;;;;4986165;28;20199;-79
2022/04/03 12:22:45;;;;;;;5.37;4.93;;;;;;;;;;5015830;28;20219;-77
2022/04/03 12:25:15;;;;;;;5.87;5.37;;;;;;;;;;5015666;28;20222;-77
2022/04/03 12:27:42;;;;;;;6.20;5.60;;;;;;;;;;5012726;28;20223;-77
2022/04/03 12:30:10;;;;;;;6.00;5.40;;;;;;;;;;5014103;28;20201;-77
2022/04/03 12:32:40;;;;;;;5.10;4.60;;;;;;;;;;5014947;28;20236;-77
2022/04/03 12:35:15;;;;;;;5.93;5.43;;;;;;;;;;5015074;28;20198;-77
2022/04/03 12:37:47;;;;;;;4.60;4.20;;;;;;;;;;5012122;28;20227;-77
2022/04/03 12:40:17;;;;;;;4.70;4.30;;;;;;;;;;5013304;28;20207;-79
2022/04/03 12:42:45;;;;;;;4.77;4.37;;;;;;;;;;5013735;28;20220;-77
2022/04/03 12:45:18;;;;;;;5.27;4.87;;;;;;;;;;5010685;28;20266;-80
2022/04/03 12:47:47;;;;;;;5.30;4.57;;;;;;;;;;5021751;28;20188;-81
2022/04/03 12:50:19;;;;;;;5.10;4.70;;;;;;;;;;5013750;28;20207;-78
2022/04/03 12:52:51;;;;;;;4.43;3.97;;;;;;;;;;5010296;28;20226;-79
2022/04/03 12:55:32;;;;;;;4.27;3.97;;;;;;;;;;5015409;28;20202;-77
2022/04/03 12:58:28;;;;;;;5.10;4.30;;;;;;;;;;5017482;28;20255;-78
2022/04/03 13:00:57;;;;;;;5.10;4.70;;;;;;;;;;5019822;28;20202;-80
2022/04/03 13:03:26;;;;;;;5.70;5.20;;;;;;;;;;5021413;28;20250;-82
2022/04/03 13:05:56;;;;;;;5.40;4.90;;;;;;;;;;5019143;28;20309;-81
2022/04/03 13:08:24;;;;;;;5.20;4.70;;;;;;;;;;5012526;28;20226;-77
2022/04/03 13:10:52;;;;;;;6.43;5.83;;;;;;;;;;5018406;28;20203;-77
2022/04/03 13:13:23;;;;;;;5.13;4.73;;;;;;;;;;5020170;28;20249;-80
2022/04/03 13:15:50;;;;;;;5.87;5.33;;;;;;;;;;5019108;28;20202;-77
2022/04/03 13:18:18;;;;;;;5.33;4.50;;;;;;;;;;5018103;28;20241;-77
2022/04/03 13:20:50;;;;;;;6.10;5.60;;;;;;;;;;5021980;28;20207;-77
2022/04/03 13:23:17;;;;;;;5.17;4.77;;;;;;;;;;5022636;28;20234;-77
2022/04/03 13:25:45;;;;;;;4.93;4.47;;;;;;;;;;5018988;28;20195;-77
2022/04/03 13:28:13;;;;;;;5.40;4.90;;;;;;;;;;5019314;28;20231;-78
2022/04/03 13:30:40;;;;;;;5.40;5.00;;;;;;;;;;5018958;28;20202;-77
2022/04/03 13:33:07;;;;;;;6.17;5.03;;;;;;;;;;5018282;28;20226;-77
2022/04/03 13:35:37;;;;;;;5.63;5.23;;;;;;;;;;5017167;28;20207;-77
2022/04/03 13:38:09;;;;;;;4.70;4.27;;;;;;;;;;5018430;28;20686;-77
2022/04/03 13:40:42;;;;;;;4.50;4.10;;;;;;;;;;5020327;28;20221;-80
2022/04/03 13:43:11;;;;;;;6.03;5.53;;;;;;;;;;5017741;28;20225;-77
2022/04/03 13:48:25;;;;;;;5.90;5.40;;;;;;;;;;5014244;28;20209;-78
2022/04/03 13:50:58;;;;;;;4.60;4.20;;;;;;;;;;5017839;28;20226;-78
2022/04/03 13:53:27;;;;;;;4.27;3.90;;;;;;;;;;5027926;28;20222;-78
2022/04/03 13:55:57;;;;;;;4.30;4.00;;;;;;;;;;5015163;28;20206;-78
2022/04/03 13:58:26;;;;;;;4.50;4.20;;;;;;;;;;5019524;28;20281;-80
2022/04/03 14:00:55;;;;;;;4.33;3.93;;;;;;;;;;5016032;28;20215;-79
2022/04/03 14:03:25;;;;;;;4.50;4.17;;;;;;;;;;5011756;28;20268;-77
2022/04/03 14:05:53;;;;;;;4.33;4.03;;;;;;;;;;5011969;28;20210;-77
2022/04/03 14:08:20;;;;;;;5.07;4.67;;;;;;;;;;5011126;28;20198;-77
2022/04/03 14:10:51;;;;;;;4.70;4.30;;;;;;;;;;5012264;28;20206;-77
2022/04/03 14:13:21;;;;;;;5.70;5.20;;;;;;;;;;5013988;28;20279;-79
2022/04/03 14:15:48;;;;;;;4.20;3.90;;;;;;;;;;5013032;28;20301;-76
2022/04/03 14:18:17;;;;;;;4.90;4.07;;;;;;;;;;5006670;28;20227;-77
2022/04/03 14:20:47;;;;;;;4.47;4.07;;;;;;;;;;5004929;28;20203;-77
2022/04/03 14:23:36;;;;;;;5.10;4.60;;;;;;;;;;5008084;28;20227;-77
2022/04/03 14:26:06;;;;;;;4.67;4.17;;;;;;;;;;5007084;28;20211;-77
2022/04/03 14:28:34;;;;;;;5.10;4.60;;;;;;;;;;5010733;28;20217;-77
2022/04/03 14:31:02;;;;;;;5.40;4.60;;;;;;;;;;5012310;28;20199;-77
2022/04/03 14:33:29;;;;;;;5.20;4.53;;;;;;;;;;5010624;28;20284;-77
2022/04/03 14:35:57;;;;;;;5.17;4.67;;;;;;;;;;5010825;28;20210;-77
2022/04/03 14:38:28;;;;;;;5.43;4.93;;;;;;;;;;5013212;28;20222;-77
2022/04/03 14:40:57;;;;;;;5.33;4.83;;;;;;;;;;5019004;28;20213;-77
2022/04/03 14:43:28;;;;;;;5.40;4.90;;;;;;;;;;5014205;28;20241;-77
2022/04/03 14:45:55;;;;;;;5.50;5.00;;;;;;;;;;5014059;28;20201;-76
2022/04/03 14:48:31;;;;;;;5.50;5.10;;;;;;;;;;5016754;28;20210;-79
2022/04/03 14:51:03;;;;;;;6.93;5.63;;;;;;;;;;5021521;28;20213;-78
2022/04/03 14:53:36;;;;;;;6.00;5.50;;;;;;;;;;5025082;28;20261;-79
2022/04/03 14:56:06;;;;;;;6.20;5.60;;;;;;;;;;5025645;28;20213;-81
2022/04/03 14:58:40;;;;;;;7.50;6.23;;;;;;;;;;5020395;28;20234;-81
2022/04/03 15:01:10;;;;;;;12.30;8.23;;;;;;;;;;5021944;28;20262;-83